Time;durP1;ratioP1;P1;durP2;ratioP2;P2;SDS_P1;SDS_P2;PMS_P1;PMS_P2;Temp;Humidity;BMP_temperature;BMP_pressure;BME280_temperature;BME280_humidity;BME280_pressure;Samples;Min_cycle;Max_cycle;Signal;HPM_P1;HPM_P2
2022/11/01 08:12:57;;;;;;;5.20;0.50;;;15.00;99.90;;;;;;1872027;23;20308;-70
2022/11/01 08:15:25;;;;;;;4.13;0.70;;;14.80;99.90;;;;;;4851370;29;20224;-66
2022/11/01 08:17:54;;;;;;;4.63;0.50;;;14.70;99.90;;;;;;4857808;29;20216;-69
2022/11/01 08:20:21;;;;;;;2.83;0.43;;;14.90;99.90;;;;;;4860567;29;20243;-67
2022/11/01 08:22:48;;;;;;;2.17;0.40;;;15.00;99.90;;;;;;4860588;29;20302;-70
2022/11/01 08:25:14;;;;;;;2.10;0.40;;;14.90;99.90;;;;;;4860771;29;20235;-68
2022/11/01 08:27:41;;;;;;;4.53;0.60;;;15.00;99.90;;;;;;4860633;29;20563;-68
2022/11/01 08:30:09;;;;;;;3.67;0.53;;;14.90;99.90;;;;;;4860520;29;20230;-71
2022/11/01 08:32:37;;;;;;;5.73;1.87;;;14.90;99.90;;;;;;4860448;29;20207;-67
2022/11/01 08:35:04;;;;;;;2.13;0.40;;;14.90;99.90;;;;;;4860423;29;20221;-69
2022/11/01 08:37:31;;;;;;;3.47;0.47;;;14.80;99.90;;;;;;4860229;29;20215;-71
2022/11/01 08:39:58;;;;;;;1.53;0.53;;;14.70;99.90;;;;;;4860426;29;20240;-69
2022/11/01 08:42:25;;;;;;;4.93;0.57;;;14.60;99.90;;;;;;4859790;29;20248;-71
2022/11/01 08:44:51;;;;;;;4.70;0.40;;;14.40;99.90;;;;;;4859913;29;20244;-70
2022/11/01 08:47:18;;;;;;;2.77;0.37;;;14.40;99.90;;;;;;4860040;29;20223;-69
2022/11/01 08:49:46;;;;;;;5.03;0.70;;;14.40;99.90;;;;;;4859504;29;20232;-68
2022/11/01 08:52:13;;;;;;;3.20;0.30;;;14.30;99.90;;;;;;4860382;29;20222;-68
2022/11/01 08:54:40;;;;;;;6.00;0.73;;;14.20;99.90;;;;;;4860530;29;20220;-69
2022/11/01 08:57:07;;;;;;;1.43;0.40;;;14.20;99.90;;;;;;4859198;29;20218;-68
2022/11/01 08:59:34;;;;;;;0.80;0.40;;;14.10;99.90;;;;;;4859119;29;20242;-68
2022/11/01 09:02:00;;;;;;;2.20;0.50;;;14.20;99.90;;;;;;4859802;29;20560;-69
2022/11/01 09:04:27;;;;;;;2.30;0.43;;;14.20;99.90;;;;;;4859539;29;20243;-71
2022/11/01 09:06:55;;;;;;;6.63;0.80;;;14.30;99.90;;;;;;4860186;29;20208;-69
2022/11/01 09:09:22;;;;;;;2.90;0.47;;;14.30;99.90;;;;;;4859501;29;20247;-68
2022/11/01 17:27:50;;;;;;;5.20;0.70;;;14.70;99.90;;;;;;4860361;29;20571;-68
2022/11/01 17:30:17;;;;;;;5.93;0.97;;;14.60;99.90;;;;;;4856047;29;20208;-69
2022/11/01 17:32:44;;;;;;;3.23;0.60;;;14.60;99.90;;;;;;4853727;29;20244;-69
2022/11/01 17:35:11;;;;;;;6.10;0.77;;;14.60;99.90;;;;;;4841936;29;20224;-70
2022/11/01 17:37:39;;;;;;;5.43;0.60;;;14.60;99.90;;;;;;4842372;29;20209;-70
2022/11/01 17:40:17;;;;;;;3.50;0.60;;;14.60;99.90;;;;;;4842024;29;20213;-71
2022/11/01 17:42:44;;;;;;;3.20;0.60;;;14.50;99.90;;;;;;4841991;29;20577;-71
2022/11/01 17:45:12;;;;;;;3.93;1.20;;;14.50;99.90;;;;;;4841241;29;20266;-70
2022/11/01 17:47:39;;;;;;;1.40;0.60;;;14.60;99.90;;;;;;4841713;29;20579;-71
2022/11/01 17:50:10;;;;;;;4.83;0.80;;;14.60;99.90;;;;;;4841958;29;20213;-71
2022/11/01 17:52:37;;;;;;;3.57;0.60;;;14.60;99.90;;;;;;4842325;29;20311;-70
2022/11/01 17:55:05;;;;;;;2.47;0.57;;;14.50;99.90;;;;;;4842295;29;20217;-72
2022/11/01 17:57:33;;;;;;;4.50;0.60;;;14.60;99.90;;;;;;4841710;29;20215;-71
2022/11/01 18:00:00;;;;;;;5.63;0.53;;;14.70;99.90;;;;;;4841386;29;20205;-72
2022/11/01 18:02:28;;;;;;;2.37;0.50;;;14.80;99.90;;;;;;4841575;29;20237;-69
2022/11/01 18:04:57;;;;;;;3.03;0.77;;;14.90;99.90;;;;;;4842131;29;20248;-72
2022/11/01 18:07:24;;;;;;;3.70;0.80;;;14.90;99.90;;;;;;4842092;29;20308;-71
2022/11/01 18:09:50;;;;;;;2.77;0.60;;;14.90;99.90;;;;;;4841835;29;20564;-71
2022/11/01 18:12:25;;;;;;;6.90;0.93;;;14.90;99.90;;;;;;4841458;29;20726;-72
2022/11/01 18:14:58;;;;;;;6.07;1.20;;;14.90;99.90;;;;;;4841849;29;20212;-71
2022/11/01 18:17:34;;;;;;;2.90;0.70;;;14.90;99.90;;;;;;4842130;29;20228;-70
2022/11/01 18:20:11;;;;;;;4.10;0.80;;;15.00;99.90;;;;;;4841925;29;20219;-68
2022/11/01 18:22:47;;;;;;;2.93;0.77;;;15.00;99.90;;;;;;4843497;29;20241;-72
2022/11/01 18:25:24;;;;;;;5.93;0.60;;;15.00;99.90;;;;;;4841416;29;20246;-68
2022/11/01 18:27:51;;;;;;;4.40;0.70;;;15.00;99.90;;;;;;4841458;29;20576;-69
2022/11/01 18:30:20;;;;;;;3.13;0.43;;;15.10;99.90;;;;;;4841785;29;20702;-67
2022/11/01 18:32:55;;;;;;;4.33;0.43;;;15.10;99.90;;;;;;4841978;29;20588;-68
2022/11/01 18:35:29;;;;;;;4.43;0.50;;;15.00;99.90;;;;;;4841610;29;20239;-67
2022/11/01 18:38:12;;;;;;;4.20;0.70;;;15.00;99.90;;;;;;4841657;29;20213;-69
2022/11/01 18:40:48;;;;;;;4.70;0.60;;;15.00;99.90;;;;;;4841148;29;20273;-67
2022/11/01 18:43:16;;;;;;;3.10;0.87;;;15.00;99.90;;;;;;4841055;29;20228;-67
2022/11/01 18:45:44;;;;;;;1.37;0.50;;;15.00;99.90;;;;;;4840351;29;20700;-68
2022/11/01 18:48:18;;;;;;;1.40;0.70;;;15.00;99.90;;;;;;4840693;29;20204;-67
2022/11/01 18:50:45;;;;;;;1.70;0.40;;;15.00;99.90;;;;;;4840970;29;20221;-67
2022/11/01 18:53:13;;;;;;;3.63;0.60;;;14.90;99.90;;;;;;4840786;29;20235;-67
2022/11/01 18:55:40;;;;;;;4.23;0.50;;;14.90;99.90;;;;;;4842072;29;20236;-67
2022/11/01 18:58:14;;;;;;;3.83;1.03;;;14.80;99.90;;;;;;4844261;29;20244;-67
2022/11/01 19:00:41;;;;;;;7.10;0.50;;;14.90;99.90;;;;;;4844149;29;20216;-67
2022/11/01 19:03:14;;;;;;;1.97;0.40;;;14.90;99.90;;;;;;4844454;29;20238;-67
2022/11/01 19:05:41;;;;;;;2.50;0.30;;;14.90;99.90;;;;;;4844255;29;20266;-67
2022/11/01 19:08:20;;;;;;;3.73;0.60;;;14.90;99.90;;;;;;4844407;29;20208;-67
2022/11/01 19:10:47;;;;;;;2.43;0.63;;;14.80;99.90;;;;;;4842195;29;20212;-67
2022/11/01 19:13:22;;;;;;;5.77;0.80;;;14.80;99.90;;;;;;4843788;29;20243;-67
2022/11/01 19:15:49;;;;;;;4.67;0.53;;;14.80;99.90;;;;;;4842250;29;20299;-68
2022/11/01 19:18:21;;;;;;;1.83;0.60;;;14.90;99.90;;;;;;4843648;29;20201;-68
2022/11/01 19:20:51;;;;;;;2.47;0.50;;;14.90;99.90;;;;;;4835786;29;20216;-68
2022/11/01 19:23:22;;;;;;;3.83;0.77;;;14.90;99.90;;;;;;4835883;29;20235;-68
2022/11/01 19:25:50;;;;;;;3.80;0.57;;;14.90;99.90;;;;;;4835839;29;20298;-68
2022/11/01 19:28:26;;;;;;;4.80;0.50;;;14.90;99.90;;;;;;4841863;29;20217;-68
2022/11/01 19:30:55;;;;;;;6.43;0.70;;;14.90;99.90;;;;;;4839873;29;20223;-68
2022/11/01 19:33:30;;;;;;;7.63;0.90;;;14.90;99.90;;;;;;4840341;29;20640;-68
2022/11/01 19:35:59;;;;;;;3.47;0.70;;;15.00;99.90;;;;;;4840500;29;20216;-68
2022/11/01 19:38:26;;;;;;;5.20;0.60;;;14.90;99.90;;;;;;4838567;29;20545;-68
2022/11/01 19:40:54;;;;;;;2.10;0.40;;;14.90;99.90;;;;;;4835010;29;20223;-68
2022/11/01 19:43:22;;;;;;;3.83;0.50;;;14.90;99.90;;;;;;4836999;29;20257;-68
2022/11/01 19:45:51;;;;;;;3.47;0.80;;;14.90;99.90;;;;;;4840805;29;20244;-67
2022/11/01 19:48:21;;;;;;;1.43;0.57;;;15.00;99.90;;;;;;4839461;29;20217;-68
2022/11/01 19:50:50;;;;;;;2.43;1.00;;;15.00;99.90;;;;;;4838626;29;20209;-68
2022/11/01 19:53:21;;;;;;;5.20;0.73;;;15.00;99.90;;;;;;4837788;29;20233;-68
2022/11/01 19:55:51;;;;;;;7.10;0.77;;;15.10;99.90;;;;;;4839824;29;20209;-70
2022/11/01 19:58:42;;;;;;;7.33;0.80;;;15.00;99.90;;;;;;4837094;29;20213;-68
2022/11/01 20:01:34;;;;;;;5.00;0.77;;;14.90;99.90;;;;;;4835354;29;20411;-68
2022/11/01 20:04:02;;;;;;;2.20;0.50;;;14.90;99.90;;;;;;4837599;29;20219;-68
2022/11/01 20:06:34;;;;;;;3.80;0.53;;;14.90;99.90;;;;;;4837449;29;20244;-68
2022/11/01 20:09:05;;;;;;;4.60;0.73;;;14.80;99.90;;;;;;4833543;29;20222;-68
2022/11/01 20:11:32;;;;;;;3.23;0.70;;;14.80;99.90;;;;;;4831335;29;20212;-68
2022/11/01 20:13:59;;;;;;;5.47;0.40;;;14.80;99.90;;;;;;4837917;29;20695;-68
2022/11/01 20:16:25;;;;;;;2.07;0.67;;;14.90;99.90;;;;;;4842387;29;20209;-69
2022/11/01 20:18:52;;;;;;;2.30;0.70;;;14.90;99.90;;;;;;4837337;29;20227;-68
2022/11/01 20:21:19;;;;;;;2.70;0.60;;;15.00;99.90;;;;;;4839659;29;20205;-68
2022/11/01 20:23:47;;;;;;;1.80;0.50;;;15.00;99.90;;;;;;4839585;29;20700;-68
2022/11/01 20:26:14;;;;;;;1.73;1.27;;;15.00;99.90;;;;;;4841564;29;20753;-69
2022/11/01 20:28:41;;;;;;;2.23;0.80;;;15.00;99.90;;;;;;4831615;29;20213;-68
2022/11/01 20:31:08;;;;;;;2.30;0.70;;;15.00;99.90;;;;;;4836586;29;20221;-68
2022/11/01 20:33:35;;;;;;;1.90;0.70;;;15.00;99.90;;;;;;4839674;29;20232;-69
2022/11/01 20:36:02;;;;;;;4.03;0.73;;;15.00;99.90;;;;;;4837678;29;20216;-68
2022/11/01 20:38:29;;;;;;;4.77;0.60;;;15.00;99.90;;;;;;4839990;29;20209;-68
2022/11/01 20:40:57;;;;;;;8.30;0.40;;;15.00;99.90;;;;;;4830118;29;20399;-68
2022/11/01 20:43:24;;;;;;;3.33;0.47;;;15.00;99.90;;;;;;4834352;29;20237;-68
2022/11/01 20:45:51;;;;;;;3.13;0.60;;;15.10;99.90;;;;;;4837014;29;20232;-68
2022/11/01 20:48:18;;;;;;;3.10;0.57;;;15.00;99.90;;;;;;4837881;29;20596;-68
2022/11/01 20:50:45;;;;;;;3.30;0.40;;;15.00;99.90;;;;;;4836262;29;20219;-68
2022/11/01 20:53:13;;;;;;;4.67;0.87;;;15.10;99.90;;;;;;4836103;29;20233;-68
2022/11/01 20:55:40;;;;;;;5.00;0.80;;;15.10;99.90;;;;;;4839078;29;20221;-68
2022/11/01 20:58:09;;;;;;;2.80;0.73;;;15.10;99.90;;;;;;4841978;29;20212;-68
2022/11/01 21:00:36;;;;;;;4.67;0.70;;;15.10;99.90;;;;;;4841196;29;20219;-68
2022/11/01 21:03:12;;;;;;;4.20;0.40;;;15.00;99.90;;;;;;4839361;29;20260;-68
2022/11/01 21:05:39;;;;;;;4.60;0.70;;;15.10;99.90;;;;;;4841787;29;20296;-68
2022/11/01 21:08:14;;;;;;;3.20;0.50;;;15.10;99.90;;;;;;4835098;29;20236;-68
2022/11/01 21:10:43;;;;;;;3.30;0.90;;;15.10;99.90;;;;;;4839657;29;20218;-68
2022/11/01 21:13:29;;;;;;;1.63;0.60;;;15.00;99.90;;;;;;4836453;29;20240;-68
2022/11/01 21:15:57;;;;;;;3.53;0.40;;;14.80;99.90;;;;;;4841395;29;20680;-68
2022/11/01 21:18:42;;;;;;;3.90;0.50;;;14.60;99.90;;;;;;4838518;29;20280;-69
2022/11/01 21:21:36;;;;;;;2.47;0.50;;;14.40;99.90;;;;;;4838969;29;20625;-68
2022/11/01 21:24:25;;;;;;;4.33;0.60;;;14.30;99.90;;;;;;4836381;29;20568;-68
2022/11/01 21:26:58;;;;;;;4.00;0.70;;;14.30;99.90;;;;;;4839425;29;20237;-68
2022/11/01 21:29:28;;;;;;;3.20;0.60;;;14.30;99.90;;;;;;4839259;29;20212;-68
2022/11/01 21:31:56;;;;;;;5.87;1.07;;;14.40;99.90;;;;;;4841498;29;20607;-68
2022/11/01 21:34:26;;;;;;;1.27;0.50;;;14.40;99.90;;;;;;4837225;29;20237;-68
2022/11/01 21:36:53;;;;;;;3.03;0.40;;;14.40;99.90;;;;;;4839351;29;20216;-68
2022/11/01 21:39:24;;;;;;;4.67;1.77;;;14.30;99.90;;;;;;4840325;29;20214;-68
2022/11/01 21:41:53;;;;;;;2.87;0.40;;;14.20;99.90;;;;;;4840186;29;20332;-68
2022/11/01 21:44:23;;;;;;;1.77;0.50;;;14.10;99.90;;;;;;4837855;29;20217;-68
2022/11/01 21:46:53;;;;;;;5.10;0.73;;;14.00;99.90;;;;;;4834006;29;20237;-68
2022/11/01 21:49:29;;;;;;;1.80;0.30;;;13.90;99.90;;;;;;4838559;29;20213;-68
2022/11/01 21:51:59;;;;;;;8.03;1.17;;;14.00;99.90;;;;;;4840636;29;20236;-68
2022/11/01 21:54:26;;;;;;;4.00;0.50;;;14.00;99.90;;;;;;4834694;29;20233;-68
2022/11/01 21:56:53;;;;;;;1.23;0.30;;;14.10;99.90;;;;;;4841546;29;20227;-69
2022/11/01 21:59:20;;;;;;;2.77;0.60;;;14.10;99.90;;;;;;4841185;29;20240;-68
2022/11/01 22:01:48;;;;;;;1.33;0.50;;;14.20;99.90;;;;;;4840129;29;20212;-69
2022/11/01 22:04:16;;;;;;;4.07;0.70;;;14.20;99.90;;;;;;4841200;29;20303;-69
2022/11/01 22:06:44;;;;;;;2.07;0.50;;;14.20;99.90;;;;;;4841919;29;20248;-68
2022/11/01 22:09:11;;;;;;;5.70;0.60;;;14.10;99.90;;;;;;4842053;29;20691;-68
2022/11/01 22:11:38;;;;;;;3.73;0.60;;;14.10;99.90;;;;;;4841865;29;20228;-68
2022/11/01 22:14:05;;;;;;;2.33;0.50;;;14.20;99.90;;;;;;4841660;29;20216;-69
2022/11/01 22:16:32;;;;;;;3.57;0.60;;;14.20;99.90;;;;;;4841618;29;20219;-68
2022/11/01 22:18:59;;;;;;;3.10;0.40;;;14.20;99.90;;;;;;4842047;29;20219;-68
2022/11/01 22:21:27;;;;;;;3.70;0.60;;;14.30;99.90;;;;;;4842157;29;20213;-68
2022/11/01 22:23:54;;;;;;;2.40;0.50;;;14.30;99.90;;;;;;4842093;29;20215;-68
2022/11/01 22:26:21;;;;;;;3.70;0.70;;;14.40;99.90;;;;;;4841632;29;20251;-68
2022/11/01 22:28:48;;;;;;;2.77;0.40;;;14.50;99.90;;;;;;4841654;29;20544;-68
